Erquelinnes, Belgium
Current Conditions -  °F | °C
As of 6:50 PM on Monday 22 Dec 2014 (Local Time) from EBCI Reporting Station
Light Rain Light Rain  
Wind Chill: 10°   Ceiling: 500
Heat Index: 10°   Visibility: 1.8mi
Dew Point:   Wind: 18mph
Humidity: 94%   Direction: 220°SW
Pressure: 30.18"   Gusts: NA
Location:  50.31°N, 4.11°E
Report Text: EBCI 221750Z 22016KT 3000 -RADZ BKN005 10/09 Q1022 NOSIG
Loading
Personal Weather Stations






























Interactive Weather Map New forecast layout! Learn more

10-Day Weather Forecast

Advertisements
Track Severe Weather on mobile